Главная страница
METAR-TAF:

METAR-TAF

Аэропорты :

Belmar / Farmingdale, Нью-Джерси, США

широта: 40-11N, долгота: 074-08W, высота над уровнем моря: 48 м

Текущие метеонаблюдения

Эта сводка был подготовлена 17 минут назад, в 00:31 UTC
Ветер 4 Узел от восточный
Температура 21°C
Влажность 83%
Давление 1021 hPa
Видимость: 16.1 км
Отдельные облака на высоте 1600 фута

METAR: KBLM 210031Z AUTO 08004KT 10SM SCT016 21/18 A3014 RMK AO2

Время: 20:48 (00:48 UTC)


TAF: отсутствует

Метеонаблюдения и прогнозы для более 4000 аэропортов (сводки METAR и TAF).

Имеющиеся станции представлены на карте желтыми и красными точками.

Чтобы увидеть название станции, наведите на нее мышь.

Затем щелкните, чтобы увидеть метеонаблюдения и метеопрогнозы.

Управление картой: чтобы увеличить масштаб, щелкните зеленые кнопки с черным крестиком; чтобы уменьшить масштаб, щелкните зеленую кнопку с тире; для просмотра соседних карт щелкайте зеленые стрелки.


METAR-TAF: